Time;durP1;ratioP1;P1;durP2;ratioP2;P2;SDS_P1;SDS_P2;PMS_P1;PMS_P2;Temp;Humidity;BMP_temperature;BMP_pressure;BME280_temperature;BME280_humidity;BME280_pressure;Samples;Min_cycle;Max_cycle;Signal;HPM_P1;HPM_P2
2021/11/23 00:00:32;;;;;;;23.33;17.08;;;;;;;;;;5087088;28;20466;-75
2021/11/23 00:02:58;;;;;;;25.35;16.40;;;;;;;;;;5120244;28;20036;-78
2021/11/23 00:05:24;;;;;;;26.17;22.73;;;;;;;;;;5086428;28;20027;-79
2021/11/23 00:07:51;;;;;;;19.00;14.35;;;;;;;;;;5085371;28;20036;-78
2021/11/23 00:10:17;;;;;;;27.25;23.38;;;;;;;;;;5085678;28;20029;-79
2021/11/23 00:12:44;;;;;;;33.15;25.98;;;;;;;;;;5086332;28;20054;-77
2021/11/23 00:15:10;;;;;;;33.17;25.77;;;;;;;;;;5086025;28;20024;-75
2021/11/23 00:17:36;;;;;;;49.38;38.47;;;;;;;;;;5086523;28;20031;-76
2021/11/23 00:20:04;;;;;;;33.20;22.10;;;;;;;;;;5085774;28;20109;-76
2021/11/23 00:22:33;;;;;;;26.50;15.25;;;;;;;;;;5084373;28;20101;-77
2021/11/23 00:25:00;;;;;;;23.50;15.77;;;;;;;;;;5086256;28;20395;-75
2021/11/23 00:27:26;;;;;;;20.05;13.65;;;;;;;;;;5086008;28;20033;-76
2021/11/23 00:29:53;;;;;;;23.88;14.88;;;;;;;;;;5085099;28;20046;-78
2021/11/23 00:32:19;;;;;;;27.30;15.38;;;;;;;;;;5085464;28;20031;-76
2021/11/23 00:34:45;;;;;;;23.80;15.10;;;;;;;;;;5084858;28;20037;-77
2021/11/23 00:37:11;;;;;;;26.30;16.13;;;;;;;;;;5084964;28;20479;-76
2021/11/23 00:39:37;;;;;;;23.27;14.80;;;;;;;;;;5084196;28;20033;-76
2021/11/23 00:42:04;;;;;;;21.23;15.38;;;;;;;;;;5084425;28;20434;-76
2021/11/23 00:44:30;;;;;;;20.95;14.18;;;;;;;;;;5084617;28;20037;-75
2021/11/23 00:46:56;;;;;;;21.70;14.15;;;;;;;;;;5084537;28;20029;-75
2021/11/23 00:49:22;;;;;;;21.05;14.65;;;;;;;;;;5116707;28;20035;-77
2021/11/23 00:51:48;;;;;;;19.70;14.85;;;;;;;;;;5083729;28;20053;-78
2021/11/23 00:54:14;;;;;;;25.58;16.42;;;;;;;;;;5084189;28;20455;-75
2021/11/23 00:56:40;;;;;;;22.90;15.10;;;;;;;;;;5083758;28;20017;-78
2021/11/23 00:59:06;;;;;;;19.67;15.48;;;;;;;;;;5083733;28;20019;-78
2021/11/23 01:01:33;;;;;;;22.80;14.15;;;;;;;;;;5084137;28;20032;-76
2021/11/23 01:03:59;;;;;;;20.35;14.68;;;;;;;;;;5083533;28;20039;-77
2021/11/23 01:06:25;;;;;;;22.08;14.50;;;;;;;;;;5083527;28;20021;-76
2021/11/23 01:08:51;;;;;;;23.13;13.52;;;;;;;;;;5114479;28;20461;-75
2021/11/23 01:11:18;;;;;;;20.02;14.13;;;;;;;;;;5082200;28;20023;-79
2021/11/23 01:13:45;;;;;;;23.02;14.02;;;;;;;;;;5082696;28;20047;-76
2021/11/23 01:16:11;;;;;;;23.33;15.27;;;;;;;;;;5083151;28;20021;-75
2021/11/23 01:18:37;;;;;;;17.20;13.55;;;;;;;;;;5082167;28;20020;-76
2021/11/23 01:21:09;;;;;;;21.08;13.23;;;;;;;;;;5082287;28;20033;-76
2021/11/23 01:23:35;;;;;;;21.67;15.10;;;;;;;;;;5083742;28;20092;-77
2021/11/23 01:26:01;;;;;;;24.13;15.52;;;;;;;;;;5083033;28;20099;-74
2021/11/23 01:28:28;;;;;;;18.85;14.25;;;;;;;;;;5082201;28;20032;-77
2021/11/23 01:30:55;;;;;;;21.23;14.35;;;;;;;;;;5082632;28;20032;-75
2021/11/23 01:33:21;;;;;;;20.52;14.90;;;;;;;;;;5115974;28;20100;-76
2021/11/23 01:35:47;;;;;;;19.95;16.20;;;;;;;;;;5082262;28;20024;-78
2021/11/23 01:38:13;;;;;;;22.02;15.88;;;;;;;;;;5083620;28;20043;-76
2021/11/23 01:40:43;;;;;;;22.30;15.57;;;;;;;;;;5084601;28;20028;-76
2021/11/23 01:43:09;;;;;;;25.80;15.40;;;;;;;;;;5085044;28;20021;-77
2021/11/23 01:45:36;;;;;;;21.88;17.02;;;;;;;;;;5085087;28;20028;-76
2021/11/23 01:48:02;;;;;;;23.48;14.35;;;;;;;;;;5085384;28;20021;-78
2021/11/23 01:50:28;;;;;;;23.90;18.17;;;;;;;;;;5117644;28;20053;-75
2021/11/23 01:52:56;;;;;;;28.60;17.88;;;;;;;;;;5085212;28;20115;-77
2021/11/23 01:55:23;;;;;;;24.45;17.02;;;;;;;;;;5084334;28;20104;-75
2021/11/23 01:57:49;;;;;;;24.65;17.58;;;;;;;;;;5083327;28;20029;-74
2021/11/23 02:00:16;;;;;;;28.00;20.42;;;;;;;;;;5081444;28;20379;-76
2021/11/23 02:02:42;;;;;;;24.70;18.92;;;;;;;;;;5081565;28;20024;-76
2021/11/23 02:05:09;;;;;;;32.72;22.20;;;;;;;;;;5081211;28;20052;-78
2021/11/23 02:07:35;;;;;;;26.33;18.85;;;;;;;;;;5081819;28;20510;-75
2021/11/23 02:10:01;;;;;;;23.13;19.20;;;;;;;;;;5082196;28;20025;-74
2021/11/23 02:12:27;;;;;;;19.58;16.08;;;;;;;;;;5081703;28;20050;-77
2021/11/23 02:14:54;;;;;;;27.73;19.23;;;;;;;;;;5081701;28;20028;-76
2021/11/23 02:17:20;;;;;;;28.15;20.95;;;;;;;;;;5082010;28;20095;-75
2021/11/23 02:19:50;;;;;;;30.88;19.27;;;;;;;;;;5081411;28;20029;-76
2021/11/23 02:22:16;;;;;;;26.48;18.00;;;;;;;;;;5081821;28;20402;-74
2021/11/23 02:24:42;;;;;;;26.50;16.98;;;;;;;;;;5085141;28;20468;-77
2021/11/23 02:27:08;;;;;;;24.90;17.13;;;;;;;;;;5082139;28;20395;-79
2021/11/23 02:29:34;;;;;;;27.98;18.08;;;;;;;;;;5081906;28;20095;-76
2021/11/23 02:32:01;;;;;;;28.30;18.65;;;;;;;;;;5081631;28;20038;-75
2021/11/23 02:34:27;;;;;;;22.67;16.15;;;;;;;;;;5081389;28;20104;-76
2021/11/23 02:36:53;;;;;;;21.90;16.80;;;;;;;;;;5114826;28;20027;-75
2021/11/23 02:39:20;;;;;;;23.45;16.95;;;;;;;;;;5082000;28;20025;-75
2021/11/23 02:41:46;;;;;;;22.35;15.68;;;;;;;;;;5081362;28;20032;-75
2021/11/23 02:44:12;;;;;;;26.88;17.15;;;;;;;;;;5081343;28;20024;-74
2021/11/23 02:46:38;;;;;;;23.92;17.70;;;;;;;;;;5081191;28;20025;-76
2021/11/23 02:49:04;;;;;;;26.40;15.95;;;;;;;;;;5081577;28;20029;-76
2021/11/23 02:51:34;;;;;;;24.52;16.60;;;;;;;;;;5080422;28;20048;-74
2021/11/23 02:54:00;;;;;;;20.88;14.15;;;;;;;;;;5081387;28;20020;-74
2021/11/23 02:56:26;;;;;;;21.60;15.43;;;;;;;;;;5081569;28;20024;-77
2021/11/23 02:58:52;;;;;;;23.55;14.25;;;;;;;;;;5081965;28;20028;-76
2021/11/23 03:01:22;;;;;;;21.75;15.18;;;;;;;;;;5081616;28;20024;-75
2021/11/23 03:03:49;;;;;;;25.00;15.82;;;;;;;;;;5082725;28;20025;-75
2021/11/23 03:06:17;;;;;;;19.40;14.57;;;;;;;;;;5081049;28;20032;-77
2021/11/23 03:08:44;;;;;;;22.08;14.68;;;;;;;;;;5081606;28;20117;-75
2021/11/23 03:11:10;;;;;;;20.00;15.00;;;;;;;;;;5080875;28;20548;-75
2021/11/23 03:13:37;;;;;;;21.42;15.02;;;;;;;;;;5080364;28;20024;-75
2021/11/23 03:16:03;;;;;;;25.73;16.42;;;;;;;;;;5113425;28;20028;-77
2021/11/23 03:18:29;;;;;;;23.17;15.50;;;;;;;;;;5080920;28;20029;-74
2021/11/23 03:20:55;;;;;;;21.17;17.00;;;;;;;;;;5080627;28;20032;-78
2021/11/23 03:23:22;;;;;;;23.90;17.15;;;;;;;;;;5080872;28;20368;-76
2021/11/23 03:25:48;;;;;;;24.42;17.65;;;;;;;;;;5080392;28;20160;-74
2021/11/23 03:28:14;;;;;;;23.25;17.75;;;;;;;;;;5112928;28;20395;-77
2021/11/23 03:30:41;;;;;;;24.65;18.08;;;;;;;;;;5079608;28;20304;-78
2021/11/23 03:33:08;;;;;;;24.35;17.85;;;;;;;;;;5080718;28;20021;-74
2021/11/23 03:35:41;;;;;;;29.33;18.83;;;;;;;;;;5080251;28;20025;-76
2021/11/23 03:38:08;;;;;;;25.70;17.25;;;;;;;;;;5080791;28;20021;-77
2021/11/23 03:40:35;;;;;;;27.60;18.40;;;;;;;;;;5079702;28;20451;-79
2021/11/23 03:43:02;;;;;;;26.98;17.63;;;;;;;;;;5079153;28;20025;-76
2021/11/23 03:45:28;;;;;;;28.65;19.75;;;;;;;;;;5079860;28;20103;-75
2021/11/23 03:47:55;;;;;;;27.80;17.10;;;;;;;;;;5079875;28;20025;-77
2021/11/23 03:50:22;;;;;;;25.00;17.20;;;;;;;;;;5079935;28;20047;-77
2021/11/23 03:52:51;;;;;;;27.77;19.33;;;;;;;;;;5081803;28;20075;-75
2021/11/23 03:55:19;;;;;;;36.97;18.27;;;;;;;;;;5079439;28;20032;-74
2021/11/23 03:57:46;;;;;;;29.48;17.70;;;;;;;;;;5080265;28;20050;-77
2021/11/23 04:00:13;;;;;;;21.63;17.02;;;;;;;;;;5115431;28;20051;-77
2021/11/23 04:02:40;;;;;;;25.52;16.55;;;;;;;;;;5083685;28;20035;-77
2021/11/23 04:05:07;;;;;;;27.73;16.60;;;;;;;;;;5083253;28;20074;-75
2021/11/23 04:07:33;;;;;;;23.58;15.93;;;;;;;;;;5083643;28;20021;-76
2021/11/23 04:09:59;;;;;;;23.27;17.20;;;;;;;;;;5082975;28;20086;-76
2021/11/23 04:12:25;;;;;;;22.77;16.00;;;;;;;;;;5083234;28;20104;-76
2021/11/23 04:14:51;;;;;;;24.63;15.80;;;;;;;;;;5116781;28;20042;-77
2021/11/23 04:17:17;;;;;;;20.95;15.55;;;;;;;;;;5084587;28;20020;-78
2021/11/23 04:19:43;;;;;;;18.95;15.95;;;;;;;;;;5083262;28;20043;-74
2021/11/23 04:22:09;;;;;;;24.45;16.40;;;;;;;;;;5083819;28;20029;-77
2021/11/23 04:24:35;;;;;;;23.30;16.38;;;;;;;;;;5084308;28;20029;-75
2021/11/23 04:27:02;;;;;;;24.15;15.63;;;;;;;;;;5083249;28;20027;-75
2021/11/23 04:29:28;;;;;;;24.38;14.80;;;;;;;;;;5083559;28;20024;-77
2021/11/23 04:31:54;;;;;;;22.67;14.23;;;;;;;;;;5082811;28;20051;-75
2021/11/23 04:34:20;;;;;;;21.85;13.95;;;;;;;;;;5083772;28;20020;-76
2021/11/23 04:36:46;;;;;;;28.55;15.27;;;;;;;;;;5084759;28;20367;-76
2021/11/23 04:39:13;;;;;;;20.92;14.75;;;;;;;;;;5084264;28;20020;-78
2021/11/23 04:41:42;;;;;;;17.40;14.23;;;;;;;;;;5083631;28;20055;-74
2021/11/23 04:44:08;;;;;;;23.95;14.35;;;;;;;;;;5083741;28;20033;-75
2021/11/23 04:46:35;;;;;;;22.10;13.30;;;;;;;;;;5083850;28;20032;-77
2021/11/23 04:49:01;;;;;;;18.67;12.93;;;;;;;;;;5084460;28;20028;-77
2021/11/23 04:51:27;;;;;;;19.42;13.73;;;;;;;;;;5084755;28;20399;-76
2021/11/23 04:53:53;;;;;;;24.67;12.63;;;;;;;;;;5084774;28;20024;-78
2021/11/23 04:56:19;;;;;;;21.50;14.68;;;;;;;;;;5085302;28;20020;-75
2021/11/23 04:58:46;;;;;;;18.83;13.93;;;;;;;;;;5084674;28;20356;-77
2021/11/23 05:01:12;;;;;;;22.67;13.27;;;;;;;;;;5085528;28;20040;-76
2021/11/23 05:03:38;;;;;;;19.15;13.00;;;;;;;;;;5085395;28;20025;-76
2021/11/23 05:06:04;;;;;;;19.05;13.68;;;;;;;;;;5085659;28;20071;-77
2021/11/23 05:08:30;;;;;;;21.70;13.25;;;;;;;;;;5089164;28;20047;-77
2021/11/23 05:10:56;;;;;;;20.58;14.30;;;;;;;;;;5084408;28;20100;-76
2021/11/23 05:13:22;;;;;;;20.02;14.60;;;;;;;;;;5084372;28;20107;-78
2021/11/23 05:15:48;;;;;;;21.48;14.18;;;;;;;;;;5086661;28;20067;-77
2021/11/23 05:18:14;;;;;;;19.92;13.40;;;;;;;;;;5083744;28;20501;-77
2021/11/23 05:20:40;;;;;;;21.67;14.90;;;;;;;;;;5084005;28;20028;-78
2021/11/23 05:23:06;;;;;;;20.50;13.15;;;;;;;;;;5084608;28;20040;-79
2021/11/23 05:25:33;;;;;;;18.70;14.80;;;;;;;;;;5083256;28;20079;-76
2021/11/23 05:27:59;;;;;;;20.63;13.93;;;;;;;;;;5083388;28;20081;-76
2021/11/23 05:30:25;;;;;;;23.13;14.05;;;;;;;;;;5083552;28;20035;-77
2021/11/23 05:32:52;;;;;;;21.13;14.18;;;;;;;;;;5083527;28;20031;-76
2021/11/23 05:35:18;;;;;;;23.23;14.50;;;;;;;;;;5083333;28;20027;-76
2021/11/23 05:37:44;;;;;;;25.17;15.75;;;;;;;;;;5081544;28;20116;-77
2021/11/23 05:40:11;;;;;;;19.55;14.35;;;;;;;;;;5081660;28;20096;-74
2021/11/23 05:42:37;;;;;;;20.45;15.10;;;;;;;;;;5081877;28;20030;-78
2021/11/23 05:45:08;;;;;;;20.35;14.45;;;;;;;;;;5082008;28;20088;-76
2021/11/23 05:47:34;;;;;;;23.70;14.32;;;;;;;;;;5082042;28;20031;-74
2021/11/23 05:50:00;;;;;;;18.50;13.88;;;;;;;;;;5114122;28;20040;-75
2021/11/23 05:52:26;;;;;;;22.40;13.48;;;;;;;;;;5082493;28;20031;-77
2021/11/23 05:54:52;;;;;;;19.58;14.18;;;;;;;;;;5082144;28;20499;-77
2021/11/23 05:57:18;;;;;;;21.23;15.23;;;;;;;;;;5083228;28;20107;-76
2021/11/23 05:59:45;;;;;;;19.90;14.65;;;;;;;;;;5082261;28;20024;-76
2021/11/23 06:02:11;;;;;;;20.60;15.45;;;;;;;;;;5082308;28;20028;-76
2021/11/23 06:04:37;;;;;;;24.27;19.73;;;;;;;;;;5082066;28;20542;-77
2021/11/23 06:07:03;;;;;;;24.30;15.85;;;;;;;;;;5082505;28;20028;-77
2021/11/23 06:09:29;;;;;;;20.40;13.32;;;;;;;;;;5082573;28;20035;-75
2021/11/23 06:11:55;;;;;;;20.70;15.00;;;;;;;;;;5082180;28;20032;-74
2021/11/23 06:14:22;;;;;;;17.33;12.90;;;;;;;;;;5081967;28;20043;-77
2021/11/23 06:16:48;;;;;;;18.95;14.07;;;;;;;;;;5082355;28;20025;-76
2021/11/23 06:19:14;;;;;;;21.10;14.38;;;;;;;;;;5081584;28;20054;-75
2021/11/23 06:21:41;;;;;;;15.65;12.82;;;;;;;;;;5113677;28;20020;-77
2021/11/23 06:24:08;;;;;;;22.88;14.75;;;;;;;;;;5081580;28;20048;-75
2021/11/23 06:26:35;;;;;;;19.45;14.13;;;;;;;;;;5081048;28;20021;-75
2021/11/23 06:29:01;;;;;;;19.38;16.10;;;;;;;;;;5080708;28;20040;-78
2021/11/23 06:31:27;;;;;;;18.77;14.57;;;;;;;;;;5080597;28;20475;-77
2021/11/23 06:33:55;;;;;;;20.25;14.55;;;;;;;;;;5080670;28;20024;-75
2021/11/23 06:36:21;;;;;;;23.08;15.85;;;;;;;;;;5080669;28;20020;-74
2021/11/23 06:38:50;;;;;;;19.30;14.02;;;;;;;;;;5080348;28;20024;-77
2021/11/23 06:41:16;;;;;;;20.15;13.95;;;;;;;;;;5080449;28;20025;-77
2021/11/23 06:43:42;;;;;;;21.00;14.95;;;;;;;;;;5081470;28;20024;-74
2021/11/23 06:46:08;;;;;;;21.90;14.57;;;;;;;;;;5081579;28;20029;-77
2021/11/23 06:48:35;;;;;;;24.98;13.85;;;;;;;;;;5080548;28;20025;-77
2021/11/23 06:51:01;;;;;;;22.13;14.65;;;;;;;;;;5079772;28;20049;-74
2021/11/23 06:53:27;;;;;;;19.92;14.20;;;;;;;;;;5080163;28;20463;-77
2021/11/23 06:55:53;;;;;;;19.02;14.50;;;;;;;;;;5080655;28;20028;-76
2021/11/23 06:58:21;;;;;;;26.05;18.92;;;;;;;;;;5080428;28;20084;-77
2021/11/23 07:00:47;;;;;;;25.17;18.45;;;;;;;;;;5080127;28;20080;-77
2021/11/23 07:03:13;;;;;;;22.60;15.85;;;;;;;;;;5080099;28;20086;-77
2021/11/23 07:05:39;;;;;;;20.27;14.55;;;;;;;;;;5080410;28;20033;-73
2021/11/23 07:08:05;;;;;;;21.63;13.93;;;;;;;;;;5080331;28;20028;-78
2021/11/23 07:10:31;;;;;;;19.80;13.23;;;;;;;;;;5080350;28;20107;-74
2021/11/23 07:12:58;;;;;;;20.88;15.25;;;;;;;;;;5078962;28;20388;-74
2021/11/23 07:15:24;;;;;;;18.70;14.18;;;;;;;;;;5080364;28;20016;-76
2021/11/23 07:17:50;;;;;;;24.08;15.07;;;;;;;;;;5080920;28;20042;-78
2021/11/23 07:20:16;;;;;;;21.60;14.15;;;;;;;;;;5079682;28;20024;-74
2021/11/23 07:22:43;;;;;;;21.00;13.90;;;;;;;;;;5079459;28;20040;-77
2021/11/23 07:25:09;;;;;;;20.55;14.60;;;;;;;;;;5080520;28;20437;-75
2021/11/23 07:27:35;;;;;;;18.80;13.23;;;;;;;;;;5081120;28;20052;-75
2021/11/23 07:30:01;;;;;;;19.38;12.38;;;;;;;;;;5079949;28;20028;-77
2021/11/23 07:32:28;;;;;;;21.25;13.80;;;;;;;;;;5080249;28;20024;-76
2021/11/23 07:34:54;;;;;;;24.25;15.85;;;;;;;;;;5084846;28;20016;-76
2021/11/23 07:37:20;;;;;;;17.00;13.52;;;;;;;;;;5084295;28;20032;-76
2021/11/23 07:39:47;;;;;;;17.42;13.98;;;;;;;;;;5118070;27;20039;-74
2021/11/23 07:42:13;;;;;;;21.98;14.77;;;;;;;;;;5085057;28;20051;-74
2021/11/23 07:44:40;;;;;;;18.35;13.85;;;;;;;;;;5084929;28;20080;-74
2021/11/23 07:47:06;;;;;;;19.17;13.77;;;;;;;;;;5116363;28;20554;-76
2021/11/23 07:49:32;;;;;;;17.40;13.23;;;;;;;;;;5084055;28;20425;-73
2021/11/23 07:51:58;;;;;;;24.80;16.08;;;;;;;;;;5083447;28;20025;-76
2021/11/23 07:54:24;;;;;;;21.65;15.88;;;;;;;;;;5085957;28;20016;-75
2021/11/23 07:56:53;;;;;;;20.08;14.15;;;;;;;;;;5086661;28;20025;-74
2021/11/23 07:59:19;;;;;;;20.27;14.02;;;;;;;;;;5084572;28;20114;-77
2021/11/23 08:01:45;;;;;;;20.08;14.98;;;;;;;;;;5084783;28;20039;-77
2021/11/23 08:04:11;;;;;;;21.90;14.55;;;;;;;;;;5082519;28;20050;-76
2021/11/23 08:06:38;;;;;;;23.67;14.82;;;;;;;;;;5085623;28;20055;-74
2021/11/23 08:09:05;;;;;;;22.20;15.20;;;;;;;;;;5084902;28;20074;-73
2021/11/23 08:11:31;;;;;;;19.45;14.98;;;;;;;;;;5079249;28;20107;-76
2021/11/23 08:13:59;;;;;;;23.33;15.00;;;;;;;;;;5087003;28;20024;-76
2021/11/23 08:16:25;;;;;;;22.83;16.45;;;;;;;;;;5088179;28;20021;-75
2021/11/23 08:18:52;;;;;;;18.13;14.90;;;;;;;;;;5084679;28;20028;-73
2021/11/23 08:21:18;;;;;;;21.10;14.60;;;;;;;;;;5087370;28;20021;-77
2021/11/23 08:23:44;;;;;;;21.08;15.77;;;;;;;;;;5086499;28;20020;-76
2021/11/23 08:26:10;;;;;;;20.30;14.52;;;;;;;;;;5086976;28;20058;-75
2021/11/23 08:28:38;;;;;;;20.08;13.98;;;;;;;;;;5084688;28;20028;-78
2021/11/23 08:31:04;;;;;;;21.55;13.68;;;;;;;;;;5085917;28;20038;-78
2021/11/23 08:33:31;;;;;;;24.08;14.75;;;;;;;;;;5087203;28;20028;-75
2021/11/23 08:35:57;;;;;;;15.63;13.57;;;;;;;;;;5087671;28;20028;-74
2021/11/23 08:38:23;;;;;;;31.65;23.42;;;;;;;;;;5084699;28;20438;-75
2021/11/23 08:40:49;;;;;;;21.77;18.20;;;;;;;;;;5084084;28;20040;-75
2021/11/23 08:43:15;;;;;;;21.52;13.07;;;;;;;;;;5072015;28;20032;-79
2021/11/23 08:45:51;;;;;;;22.30;13.82;;;;;;;;;;5081314;28;20021;-77
2021/11/23 08:48:17;;;;;;;18.90;14.20;;;;;;;;;;5080879;28;20024;-73
2021/11/23 08:50:43;;;;;;;17.65;13.70;;;;;;;;;;5085527;28;20045;-76
2021/11/23 08:53:09;;;;;;;55.75;40.40;;;;;;;;;;5081472;28;20506;-73
2021/11/23 08:55:37;;;;;;;39.97;28.98;;;;;;;;;;5074260;28;20080;-76
2021/11/23 08:58:03;;;;;;;37.97;24.23;;;;;;;;;;5082314;28;20027;-74
2021/11/23 09:00:30;;;;;;;35.80;25.23;;;;;;;;;;5087680;28;20392;-73
2021/11/23 09:02:59;;;;;;;37.78;27.50;;;;;;;;;;5094312;28;20032;-74
2021/11/23 09:05:25;;;;;;;28.83;20.60;;;;;;;;;;5080090;28;20024;-75
2021/11/23 09:07:52;;;;;;;30.20;23.05;;;;;;;;;;5081433;28;20056;-75
2021/11/23 09:10:21;;;;;;;30.98;23.60;;;;;;;;;;5076259;28;20021;-76
2021/11/23 09:12:49;;;;;;;27.33;23.58;;;;;;;;;;5075688;28;20024;-74
2021/11/23 09:15:37;;;;;;;30.70;22.40;;;;;;;;;;5085947;28;20023;-75
2021/11/23 09:21:06;;;;;;;23.13;16.27;;;;;;;;;;5108417;28;20449;-75
2021/11/23 09:23:32;;;;;;;19.17;13.90;;;;;;;;;;5106632;28;20103;-73
2021/11/23 09:25:58;;;;;;;21.60;13.60;;;;;;;;;;5092713;28;20032;-74
2021/11/23 09:28:27;;;;;;;20.45;14.20;;;;;;;;;;5086654;28;20386;-78
2021/11/23 09:30:53;;;;;;;16.88;12.48;;;;;;;;;;5085595;28;20376;-75
2021/11/23 09:33:19;;;;;;;16.05;11.30;;;;;;;;;;5084067;28;20032;-74
2021/11/23 09:36:31;;;;;;;16.35;12.00;;;;;;;;;;5086882;28;20557;-75
2021/11/23 09:38:38;;;;;;;15.98;12.52;;;;;;;;;;5065899;28;20029;-77
2021/11/23 09:41:05;;;;;;;18.70;13.18;;;;;;;;;;5084660;28;20039;-78
2021/11/23 09:43:31;;;;;;;18.83;11.73;;;;;;;;;;5085732;28;20028;-75
2021/11/23 09:45:58;;;;;;;14.80;11.35;;;;;;;;;;5114073;28;20527;-74
2021/11/23 09:48:24;;;;;;;21.52;14.20;;;;;;;;;;5084312;28;20032;-77
2021/11/23 09:50:51;;;;;;;22.13;13.38;;;;;;;;;;5083784;28;20101;-77
2021/11/23 09:53:18;;;;;;;19.30;14.00;;;;;;;;;;5083670;28;20024;-75
2021/11/23 09:55:44;;;;;;;20.38;12.57;;;;;;;;;;5116411;28;20047;-76
2021/11/23 09:58:11;;;;;;;16.90;11.82;;;;;;;;;;5082735;28;20024;-76
2021/11/23 10:00:38;;;;;;;17.92;12.05;;;;;;;;;;5115271;28;20558;-76
2021/11/23 10:03:25;;;;;;;19.65;12.63;;;;;;;;;;5107242;28;20029;-76
2021/11/23 10:05:51;;;;;;;17.48;12.70;;;;;;;;;;5074772;28;20017;-78
2021/11/23 10:08:18;;;;;;;22.73;12.80;;;;;;;;;;5074143;28;20025;-77
2021/11/23 10:10:46;;;;;;;19.85;12.32;;;;;;;;;;5070630;28;20032;-77
2021/11/23 10:13:15;;;;;;;19.88;12.27;;;;;;;;;;5073221;28;20020;-76
2021/11/23 10:15:45;;;;;;;19.98;12.45;;;;;;;;;;5077972;28;20021;-78
2021/11/23 10:18:13;;;;;;;73.30;38.60;;;;;;;;;;5078781;28;20025;-77
2021/11/23 10:20:43;;;;;;;43.83;25.88;;;;;;;;;;5079159;28;20039;-76
2021/11/23 10:23:12;;;;;;;30.25;21.08;;;;;;;;;;5071361;28;20033;-77
2021/11/23 10:25:39;;;;;;;19.42;16.13;;;;;;;;;;5076349;28;20183;-78
2021/11/23 10:28:05;;;;;;;17.63;14.48;;;;;;;;;;5070562;28;20040;-76
2021/11/23 10:30:31;;;;;;;14.02;11.52;;;;;;;;;;5071703;28;20043;-77
2021/11/23 10:32:57;;;;;;;15.98;12.38;;;;;;;;;;5075626;28;20021;-75
2021/11/23 10:35:24;;;;;;;16.80;11.45;;;;;;;;;;5111352;28;20028;-77
2021/11/23 10:37:51;;;;;;;14.90;11.00;;;;;;;;;;5075215;28;20023;-78
2021/11/23 10:40:19;;;;;;;18.20;10.43;;;;;;;;;;5078027;28;20031;-77
2021/11/23 10:42:49;;;;;;;20.08;11.45;;;;;;;;;;5081650;28;20052;-76
2021/11/23 10:45:16;;;;;;;15.45;10.93;;;;;;;;;;5076531;28;20017;-76
2021/11/23 10:47:43;;;;;;;16.05;10.50;;;;;;;;;;5076658;28;20024;-77
2021/11/23 10:50:12;;;;;;;16.98;12.23;;;;;;;;;;5063570;28;20052;-79
2021/11/23 10:52:40;;;;;;;18.42;10.75;;;;;;;;;;5072959;28;20089;-78
2021/11/23 10:55:08;;;;;;;14.73;10.35;;;;;;;;;;5074029;28;20617;-78
2021/11/23 10:57:41;;;;;;;15.00;10.98;;;;;;;;;;5079788;28;20047;-76
2021/11/23 11:00:09;;;;;;;19.83;13.57;;;;;;;;;;5080973;28;20013;-79
2021/11/23 11:02:37;;;;;;;37.63;18.48;;;;;;;;;;5081617;28;20036;-77
2021/11/23 11:05:04;;;;;;;67.32;29.95;;;;;;;;;;5081259;28;20025;-75
2021/11/23 11:07:30;;;;;;;87.57;37.25;;;;;;;;;;5076072;28;20094;-75
2021/11/23 11:09:58;;;;;;;74.13;33.80;;;;;;;;;;5078756;28;20024;-75
2021/11/23 11:12:24;;;;;;;42.85;25.33;;;;;;;;;;5083264;28;20455;-75
2021/11/23 11:15:02;;;;;;;38.20;22.08;;;;;;;;;;5083641;28;20039;-75
2021/11/23 11:17:29;;;;;;;42.30;21.15;;;;;;;;;;5081604;28;20017;-76
2021/11/23 11:19:56;;;;;;;65.05;33.55;;;;;;;;;;5084860;28;20024;-76
2021/11/23 11:22:23;;;;;;;40.60;22.85;;;;;;;;;;5080551;28;20039;-77
2021/11/23 11:25:07;;;;;;;45.63;26.27;;;;;;;;;;5082617;28;20024;-77
2021/11/23 11:27:34;;;;;;;33.40;20.38;;;;;;;;;;5078505;28;20026;-77
2021/11/23 11:30:19;;;;;;;19.45;12.80;;;;;;;;;;5078128;28;20030;-79
2021/11/23 11:32:49;;;;;;;19.05;14.15;;;;;;;;;;5080308;28;20100;-76
2021/11/23 11:35:23;;;;;;;13.32;10.10;;;;;;;;;;5072498;28;20031;-77
2021/11/23 11:37:50;;;;;;;12.52;8.30;;;;;;;;;;5076751;28;20021;-76
2021/11/23 11:40:21;;;;;;;14.48;8.45;;;;;;;;;;5113644;28;20028;-77
2021/11/23 11:42:48;;;;;;;13.38;8.50;;;;;;;;;;5077503;28;20028;-74
2021/11/23 11:45:17;;;;;;;12.30;8.48;;;;;;;;;;5082602;28;20031;-75
2021/11/23 11:47:45;;;;;;;24.67;8.18;;;;;;;;;;5068042;28;20025;-76
2021/11/23 11:50:16;;;;;;;14.68;8.27;;;;;;;;;;5079893;28;20040;-77
2021/11/23 11:53:00;;;;;;;11.20;8.20;;;;;;;;;;5075546;28;20016;-76
2021/11/23 11:55:27;;;;;;;10.20;7.72;;;;;;;;;;5072235;28;20028;-76
2021/11/23 11:57:55;;;;;;;10.32;7.32;;;;;;;;;;5074690;28;20048;-78
2021/11/23 12:00:45;;;;;;;9.60;7.53;;;;;;;;;;5072479;28;20088;-76
2021/11/23 12:03:15;;;;;;;20.33;7.47;;;;;;;;;;5082716;28;20050;-76
2021/11/23 12:05:50;;;;;;;12.40;7.13;;;;;;;;;;5071526;28;20052;-75
2021/11/23 12:08:22;;;;;;;11.82;8.75;;;;;;;;;;5070856;28;20043;-77
2021/11/23 12:10:48;;;;;;;12.93;9.30;;;;;;;;;;5072222;28;20024;-79
2021/11/23 12:43:23;;;;;;;15.65;9.50;;;;;;;;;;5100697;22;20055;-75
2021/11/23 12:45:49;;;;;;;9.68;5.68;;;;;;;;;;5090454;28;20029;-75
2021/11/23 12:48:17;;;;;;;24.15;10.40;;;;;;;;;;5091470;28;20035;-76
2021/11/23 12:50:43;;;;;;;21.05;10.13;;;;;;;;;;5086640;28;20033;-77
2021/11/23 12:53:12;;;;;;;24.67;11.23;;;;;;;;;;5057369;28;20472;-78
2021/11/23 12:55:38;;;;;;;7.40;4.35;;;;;;;;;;5077147;28;20024;-78
2021/11/23 12:58:04;;;;;;;17.30;9.70;;;;;;;;;;5059915;28;20025;-76
2021/11/23 13:00:31;;;;;;;13.18;8.38;;;;;;;;;;5084873;28;20023;-77
2021/11/23 13:02:57;;;;;;;9.40;5.00;;;;;;;;;;5089589;28;20031;-76
2021/11/23 13:05:28;;;;;;;4.07;3.55;;;;;;;;;;5077107;28;20028;-76
2021/11/23 13:07:55;;;;;;;9.77;4.28;;;;;;;;;;5086247;28;20924;-77
2021/11/23 13:10:26;;;;;;;4.45;3.70;;;;;;;;;;5073298;28;20418;-77
2021/11/23 13:12:55;;;;;;;6.53;5.20;;;;;;;;;;5097607;28;20024;-77
2021/11/23 13:15:22;;;;;;;8.23;4.00;;;;;;;;;;5092401;28;20028;-77
2021/11/23 13:17:52;;;;;;;6.25;4.45;;;;;;;;;;5073833;28;20052;-76
2021/11/23 13:20:23;;;;;;;6.25;3.72;;;;;;;;;;5083230;28;20025;-77
2021/11/23 13:22:53;;;;;;;5.22;3.92;;;;;;;;;;5095913;28;20032;-77
2021/11/23 13:25:19;;;;;;;3.97;3.38;;;;;;;;;;5092815;28;20047;-75
2021/11/23 13:27:45;;;;;;;5.47;4.03;;;;;;;;;;5064941;28;20028;-76
2021/11/23 13:30:30;;;;;;;4.38;3.55;;;;;;;;;;5077082;28;20025;-78
2021/11/23 13:32:56;;;;;;;6.05;4.15;;;;;;;;;;5076667;28;20119;-77
2021/11/23 13:35:22;;;;;;;6.53;4.10;;;;;;;;;;5083170;28;20025;-77
2021/11/23 13:37:50;;;;;;;5.53;4.07;;;;;;;;;;5081160;28;20098;-75
2021/11/23 13:40:26;;;;;;;4.22;3.30;;;;;;;;;;5080208;28;20486;-76
2021/11/23 13:42:53;;;;;;;3.35;3.03;;;;;;;;;;5092465;28;20044;-77
2021/11/23 13:45:21;;;;;;;5.25;3.78;;;;;;;;;;5099788;28;20028;-77
2021/11/23 13:47:50;;;;;;;5.97;3.90;;;;;;;;;;5076336;28;20028;-76
2021/11/23 13:50:17;;;;;;;3.70;3.30;;;;;;;;;;5091859;28;20052;-75
2021/11/23 13:52:47;;;;;;;7.20;3.83;;;;;;;;;;5086216;28;20080;-77
2021/11/23 13:55:22;;;;;;;6.72;3.90;;;;;;;;;;5077032;28;20054;-77
2021/11/23 13:57:49;;;;;;;4.03;3.22;;;;;;;;;;5088383;28;20028;-76
2021/11/23 14:00:21;;;;;;;5.97;4.03;;;;;;;;;;5085798;28;20024;-77
2021/11/23 14:02:53;;;;;;;7.13;4.40;;;;;;;;;;5082373;28;20016;-77
2021/11/23 14:05:43;;;;;;;7.43;4.70;;;;;;;;;;5091508;28;20039;-75
2021/11/23 14:08:09;;;;;;;6.93;4.63;;;;;;;;;;5090526;28;20028;-76
2021/11/23 14:10:39;;;;;;;5.07;4.55;;;;;;;;;;5097538;28;20043;-77
2021/11/23 14:13:05;;;;;;;8.30;5.30;;;;;;;;;;5088532;28;20103;-75
2021/11/23 14:15:44;;;;;;;7.85;5.80;;;;;;;;;;5101361;28;20382;-77
2021/11/23 14:18:13;;;;;;;7.32;4.88;;;;;;;;;;5094214;28;20024;-77
2021/11/23 14:20:48;;;;;;;5.22;3.65;;;;;;;;;;5094590;28;20117;-76
2021/11/23 14:23:38;;;;;;;5.25;3.67;;;;;;;;;;5078955;28;20108;-77
2021/11/23 14:26:16;;;;;;;6.15;4.40;;;;;;;;;;5065643;28;20040;-79
2021/11/23 14:28:44;;;;;;;5.82;4.03;;;;;;;;;;5090834;28;20490;-78
2021/11/23 14:31:14;;;;;;;8.18;6.22;;;;;;;;;;5099710;28;20019;-76
2021/11/23 14:33:40;;;;;;;9.43;6.60;;;;;;;;;;5100160;28;20016;-77
2021/11/23 14:36:06;;;;;;;6.68;5.70;;;;;;;;;;5097778;28;20024;-77
2021/11/23 14:38:32;;;;;;;7.90;7.10;;;;;;;;;;5093287;28;20075;-79
2021/11/23 14:41:00;;;;;;;10.68;7.68;;;;;;;;;;5095808;28;20103;-79
2021/11/23 14:43:28;;;;;;;16.27;11.95;;;;;;;;;;5099519;28;20130;-75
2021/11/23 14:45:55;;;;;;;12.93;8.63;;;;;;;;;;5086723;28;20541;-77
2021/11/23 14:48:21;;;;;;;13.70;10.80;;;;;;;;;;5086399;28;20024;-78
2021/11/23 14:50:47;;;;;;;7.93;5.72;;;;;;;;;;5092215;28;20032;-76
2021/11/23 14:53:14;;;;;;;7.38;5.72;;;;;;;;;;5089800;28;20044;-79
2021/11/23 14:55:41;;;;;;;8.35;6.57;;;;;;;;;;5085385;28;20052;-76